Airfield :
LOGIN :

Register | Disclaimer

   EN    FR    IT 

 










Legend :    VFR   Marginal VFR   IFR   Intensive IFR   Very Intensive IFR
Visi :
Ceiling :
>= 8 km
>= 3000ft
5 to 8 km
1000 to 3000 ft
1500m to 5 km
500 to 1000 ft
800 to 1500m
200 to 500 ft
< 800m
< 200 ft
Symbols :   Thunderstorms  Fog  Heavy snow  Heavy precipitations  Wind > 20 kt
SIGMETs :     Misc.  Thunderstorms  Icing  Turbulence  Mountain Waves  Volcanic Ashes






- Airport Elevation : 238 ft
- IATA code : FAB


EGLF - Farnborough

CURRENT METAR :
  • 150650Z VRB01KT 4000 BR BKN002 10/10 Q1003

EXPIRED METARs :
  • 150620Z VRB02KT 5000 BR BKN002 10/10 Q1003
  • 150550Z 31003KT 6000 BKN002 10/10 Q1003
  • 150520Z AUTO VRB02KT 7000 OVC002/// 10/10 Q1003
  • 150450Z AUTO VRB02KT 5000 BR OVC002/// 10/10 Q1003
  • 150420Z AUTO VRB03KT 6000 OVC002/// 10/09 Q1002

TAF TAF EGLF
Valid from the 15 at 06:00 until the 15 at 15:00 UTC


150600Z 1506/1515 27005KT 7000 BKN002
PROB40
TEMPO 1506/1507 3000 BR BKN001
BECMG 1507/1510 9999 FEW012
PROB30
TEMPO 1512/1515 7000 SHRA
ATIS : +44 09063 800 400 (*282)



MET'MAP, your aeronautical weather chart ! - Copyright ORBIFLY December 2007 - Disclaimer

ORBIFLY MET'MAP TEAM :

Programming & Development : Alexandra Zaïnal
Concept & Development : Baudouin d'Aumeries
Co-Development & Prog : Marc-Olivier Méhu
Technical & hardware support : Manuel Goepfert

Contact : metmap@orbifly.com




SOURCES & CREDITS :

   NOAA